Time;durP1;ratioP1;P1;durP2;ratioP2;P2;SDS_P1;SDS_P2;PMS_P1;PMS_P2;Temp;Humidity;BMP_temperature;BMP_pressure;BME280_temperature;BME280_humidity;BME280_pressure;Samples;Min_cycle;Max_cycle;Signal;HPM_P1;HPM_P2
2023/03/08 00:01:21;;;;;;;24.08;12.52;;;2.40;99.90;;;;;;6247534;22;20027;-86
2023/03/08 00:04:10;;;;;;;20.67;10.40;;;2.30;99.90;;;;;;6223090;22;20039;-82
2023/03/08 00:06:57;;;;;;;18.73;12.02;;;2.30;99.90;;;;;;6222796;23;20032;-82
2023/03/08 00:09:45;;;;;;;28.02;12.60;;;2.30;99.90;;;;;;6244040;23;20028;-83
2023/03/08 00:12:32;;;;;;;21.67;11.98;;;2.30;99.90;;;;;;6244918;23;20061;-82
2023/03/08 00:15:19;;;;;;;22.50;11.63;;;2.40;99.90;;;;;;6245411;23;20055;-81
2023/03/08 00:18:07;;;;;;;26.92;12.15;;;2.40;99.90;;;;;;6246285;23;20419;-83
2023/03/08 00:21:06;;;;;;;19.70;11.55;;;2.40;99.90;;;;;;6247870;23;20020;-81
2023/03/08 00:23:53;;;;;;;20.20;12.60;;;2.40;99.90;;;;;;6246284;23;20024;-81
2023/03/08 00:26:42;;;;;;;21.25;11.50;;;2.40;99.90;;;;;;6245725;23;20028;-83
2023/03/08 00:29:30;;;;;;;24.05;12.10;;;2.30;99.90;;;;;;6225502;23;20087;-81
2023/03/08 00:32:22;;;;;;;25.38;12.35;;;2.30;99.90;;;;;;6225547;23;20111;-83
2023/03/08 00:35:09;;;;;;;25.50;12.25;;;2.20;99.90;;;;;;6246324;23;20109;-80
2023/03/08 00:37:57;;;;;;;20.67;11.13;;;2.20;99.90;;;;;;6227156;23;20031;-82
2023/03/08 00:40:44;;;;;;;23.58;12.43;;;2.20;99.90;;;;;;6245477;23;20028;-85
2023/03/08 00:43:34;;;;;;;25.70;13.15;;;2.20;99.90;;;;;;6256688;23;20040;-82
2023/03/08 00:46:23;;;;;;;25.88;12.25;;;2.10;99.90;;;;;;6243505;23;20331;-82
2023/03/08 00:49:14;;;;;;;21.50;11.52;;;1.90;99.90;;;;;;6239250;23;20027;-82
2023/03/08 00:52:03;;;;;;;26.10;12.77;;;1.90;99.90;;;;;;6234314;23;20046;-82
2023/03/08 00:54:53;;;;;;;23.08;12.48;;;1.80;99.90;;;;;;6257163;22;20035;-81
2023/03/08 00:57:40;;;;;;;21.55;11.57;;;1.70;99.90;;;;;;6251190;23;20351;-82
2023/03/08 01:00:27;;;;;;;22.40;12.60;;;1.60;99.90;;;;;;6248629;23;20031;-81
2023/03/08 01:03:18;;;;;;;26.83;13.77;;;1.60;99.90;;;;;;6246923;23;20415;-80
2023/03/08 01:06:08;;;;;;;24.10;12.45;;;1.50;99.90;;;;;;6246310;22;20499;-82
2023/03/08 01:08:55;;;;;;;28.48;12.52;;;1.50;99.90;;;;;;6245337;23;20339;-82
2023/03/08 01:11:43;;;;;;;24.75;13.07;;;1.50;99.90;;;;;;6245323;23;20028;-82
2023/03/08 01:14:30;;;;;;;21.90;12.10;;;1.40;99.90;;;;;;6243657;23;20020;-82
2023/03/08 01:17:17;;;;;;;26.30;13.07;;;1.30;99.90;;;;;;6248013;22;20028;-83
2023/03/08 01:20:06;;;;;;;25.17;13.63;;;1.20;99.90;;;;;;6247604;22;20020;-81
2023/03/08 01:22:55;;;;;;;24.95;13.57;;;1.30;99.90;;;;;;6246059;23;20052;-81
2023/03/08 01:25:42;;;;;;;24.00;12.73;;;1.30;99.90;;;;;;6260776;23;20039;-81
2023/03/08 01:28:31;;;;;;;27.88;12.35;;;1.30;99.90;;;;;;6263701;23;20048;-81
2023/03/08 01:31:27;;;;;;;28.00;13.00;;;1.30;99.90;;;;;;6260972;22;20059;-82
2023/03/08 01:34:15;;;;;;;23.85;12.68;;;1.10;99.90;;;;;;6249406;22;20142;-79
2023/03/08 01:37:03;;;;;;;27.85;12.65;;;1.10;99.90;;;;;;6246776;23;20028;-83
2023/03/08 01:39:52;;;;;;;27.75;12.73;;;1.10;99.90;;;;;;6248523;22;20347;-81
2023/03/08 01:42:39;;;;;;;22.73;12.75;;;1.10;99.90;;;;;;6248949;22;20031;-82
2023/03/08 01:46:04;;;;;;;27.17;13.35;;;1.00;99.90;;;;;;6246294;23;20035;-81
2023/03/08 01:49:18;;;;;;;22.35;12.20;;;1.00;99.90;;;;;;6247762;22;20108;-80
2023/03/08 01:52:17;;;;;;;24.63;13.98;;;1.00;99.90;;;;;;6247707;22;20036;-83
2023/03/08 01:55:08;;;;;;;23.27;12.38;;;1.00;99.90;;;;;;6245966;23;20407;-82
2023/03/08 01:57:56;;;;;;;23.63;12.10;;;1.10;99.90;;;;;;6247663;22;20051;-84
2023/03/08 02:00:45;;;;;;;23.33;12.45;;;1.10;99.90;;;;;;6248857;22;20020;-83
2023/03/08 02:03:34;;;;;;;22.83;13.80;;;1.00;99.90;;;;;;6245936;23;20024;-81
2023/03/08 02:06:22;;;;;;;24.23;13.23;;;1.00;99.90;;;;;;6248583;23;20024;-81
2023/03/08 02:09:09;;;;;;;25.10;12.73;;;1.10;99.90;;;;;;6257965;23;20024;-83
2023/03/08 02:12:01;;;;;;;25.52;12.48;;;1.00;99.90;;;;;;6259805;23;20020;-81
2023/03/08 02:14:50;;;;;;;22.95;12.73;;;1.10;99.90;;;;;;6262821;23;20023;-82
2023/03/08 02:17:41;;;;;;;23.25;11.93;;;1.10;99.90;;;;;;6234241;23;20020;-79
2023/03/08 02:20:30;;;;;;;28.98;13.00;;;1.10;99.90;;;;;;6246716;23;20175;-81
2023/03/08 02:23:23;;;;;;;21.80;11.38;;;1.10;99.90;;;;;;6246771;23;20043;-82
2023/03/08 02:26:13;;;;;;;23.67;12.93;;;1.20;99.90;;;;;;6246754;23;20028;-83
2023/03/08 02:29:01;;;;;;;22.73;12.25;;;1.20;99.90;;;;;;6245972;23;20099;-81
2023/03/08 02:31:50;;;;;;;20.15;11.85;;;1.20;99.90;;;;;;6244865;23;20028;-83
2023/03/08 02:34:37;;;;;;;24.17;12.23;;;1.20;99.90;;;;;;6245013;23;20027;-82
2023/03/08 02:37:27;;;;;;;24.48;11.73;;;1.30;99.90;;;;;;6244184;23;20070;-83
2023/03/08 02:40:14;;;;;;;26.20;12.73;;;1.30;99.90;;;;;;6245176;23;20080;-82
2023/03/08 02:43:02;;;;;;;26.15;12.85;;;1.30;99.90;;;;;;6246900;23;20328;-83
2023/03/08 02:45:49;;;;;;;24.95;12.40;;;1.30;99.90;;;;;;6243970;23;20307;-81
2023/03/08 02:48:38;;;;;;;24.38;12.23;;;1.40;99.90;;;;;;6243566;23;20406;-82
2023/03/08 02:51:25;;;;;;;19.48;11.65;;;1.40;99.90;;;;;;6223764;23;20357;-83
2023/03/08 02:54:15;;;;;;;19.80;11.40;;;1.50;99.90;;;;;;6222051;23;20035;-82
2023/03/08 02:57:03;;;;;;;22.05;12.20;;;1.50;99.90;;;;;;6246262;23;20024;-82
2023/03/08 02:59:50;;;;;;;25.40;12.45;;;1.50;99.90;;;;;;6244819;23;20024;-82
2023/03/08 03:02:37;;;;;;;24.02;12.18;;;1.50;99.90;;;;;;6201590;23;20031;-83
2023/03/08 03:05:25;;;;;;;23.25;12.35;;;1.40;99.90;;;;;;6223524;22;20023;-82
2023/03/08 03:08:12;;;;;;;22.63;11.80;;;1.50;99.90;;;;;;6243524;23;20044;-81
2023/03/08 03:11:00;;;;;;;18.92;11.20;;;1.50;99.90;;;;;;6246683;23;20354;-81
2023/03/08 03:13:52;;;;;;;23.30;12.13;;;1.40;99.90;;;;;;6230997;23;20054;-83
2023/03/08 03:16:39;;;;;;;23.23;11.40;;;1.50;99.90;;;;;;6241845;23;20035;-82
2023/03/08 03:19:27;;;;;;;26.08;12.50;;;1.50;99.90;;;;;;6248768;23;20373;-83
2023/03/08 03:22:14;;;;;;;22.30;11.85;;;1.50;99.90;;;;;;6243574;23;20024;-82
2023/03/08 03:25:01;;;;;;;21.55;11.45;;;1.50;99.90;;;;;;6224309;23;20076;-81
2023/03/08 03:27:52;;;;;;;22.25;11.57;;;1.50;99.90;;;;;;6246423;23;20078;-80
2023/03/08 03:30:39;;;;;;;22.58;12.52;;;1.50;99.90;;;;;;6245630;23;20051;-79
2023/03/08 03:33:27;;;;;;;24.52;12.23;;;1.50;99.90;;;;;;6243874;23;20028;-82
2023/03/08 03:36:17;;;;;;;25.80;11.98;;;1.40;99.90;;;;;;6245308;23;20082;-83
2023/03/08 03:39:05;;;;;;;23.27;12.32;;;1.40;99.90;;;;;;6225269;23;20289;-80
2023/03/08 03:41:52;;;;;;;25.20;12.65;;;1.30;99.90;;;;;;6224095;23;20055;-82
2023/03/08 03:44:40;;;;;;;19.80;11.73;;;1.30;99.90;;;;;;6242301;23;20023;-82
2023/03/08 03:47:28;;;;;;;26.80;12.98;;;1.20;99.90;;;;;;6244405;23;20094;-82
2023/03/08 03:50:16;;;;;;;23.50;11.68;;;1.00;99.90;;;;;;6243177;23;20039;-81
2023/03/08 03:53:03;;;;;;;21.33;11.00;;;0.90;99.90;;;;;;6223381;23;20028;-82
2023/03/08 03:55:50;;;;;;;22.77;12.80;;;0.90;99.90;;;;;;6246581;22;20055;-81
2023/03/08 03:58:39;;;;;;;23.27;11.90;;;0.80;99.90;;;;;;6224191;23;20115;-81
2023/03/08 04:01:31;;;;;;;28.65;12.80;;;0.80;99.90;;;;;;6221799;23;20052;-81
2023/03/08 04:04:24;;;;;;;23.52;12.50;;;0.80;99.90;;;;;;6243020;23;20035;-82
2023/03/08 04:07:12;;;;;;;21.45;11.75;;;0.80;99.90;;;;;;6221232;23;20032;-79
2023/03/08 04:09:59;;;;;;;22.00;11.98;;;0.80;99.90;;;;;;6248225;23;20028;-86
2023/03/08 04:12:50;;;;;;;20.25;11.68;;;0.80;99.90;;;;;;6248892;23;20036;-87
2023/03/08 04:15:37;;;;;;;22.92;12.18;;;0.80;99.90;;;;;;6245644;23;20043;-89
2023/03/08 04:18:33;;;;;;;23.67;12.98;;;0.70;99.90;;;;;;6243360;23;20058;-87
2023/03/08 04:21:27;;;;;;;24.63;12.23;;;0.80;99.90;;;;;;6225345;23;20076;-89
2023/03/08 04:24:14;;;;;;;22.85;12.57;;;0.80;99.90;;;;;;6246139;23;20024;-89
2023/03/08 04:27:01;;;;;;;25.63;12.65;;;0.80;99.90;;;;;;6250768;22;20020;-88
2023/03/08 04:29:49;;;;;;;22.48;12.73;;;0.70;99.90;;;;;;6256523;23;20020;-88
2023/03/08 04:32:36;;;;;;;26.73;13.05;;;0.60;99.90;;;;;;6257738;23;20020;-90
2023/03/08 04:35:23;;;;;;;38.03;17.60;;;0.70;99.90;;;;;;6256552;23;20076;-90
2023/03/08 04:38:11;;;;;;;26.75;13.27;;;0.70;99.90;;;;;;6256796;23;20074;-89
2023/03/08 04:41:06;;;;;;;27.70;13.05;;;0.80;99.90;;;;;;6254469;23;20419;-89
2023/03/08 04:43:58;;;;;;;23.25;11.90;;;1.10;99.90;;;;;;6221808;23;20031;-89
2023/03/08 04:46:47;;;;;;;24.00;12.68;;;1.30;99.90;;;;;;6244511;23;20046;-88
2023/03/08 04:49:35;;;;;;;25.58;12.68;;;1.40;99.90;;;;;;6244976;23;20028;-90
2023/03/08 04:52:23;;;;;;;34.15;17.23;;;1.50;99.90;;;;;;6243234;23;20107;-89
2023/03/08 04:55:10;;;;;;;31.38;14.88;;;1.60;99.90;;;;;;6243709;23;20024;-89
2023/03/08 04:57:57;;;;;;;24.17;12.80;;;1.60;99.90;;;;;;6257023;23;20101;-90
2023/03/08 05:05:33;;;;;;;25.88;13.57;;;1.80;99.90;;;;;;6255858;22;20472;-91
2023/03/08 05:08:35;;;;;;;24.65;13.02;;;1.80;99.90;;;;;;6197559;23;20029;-86
2023/03/08 05:11:27;;;;;;;29.23;15.23;;;1.80;99.90;;;;;;6166085;23;20136;-89
2023/03/08 05:14:17;;;;;;;24.88;13.00;;;1.90;99.90;;;;;;6184030;23;20436;-88
2023/03/08 05:17:07;;;;;;;24.30;13.05;;;1.90;99.90;;;;;;6184493;23;20036;-89
2023/03/08 05:19:54;;;;;;;26.45;14.48;;;2.00;99.90;;;;;;6164794;23;20432;-86
2023/03/08 05:22:41;;;;;;;30.67;15.05;;;2.00;99.90;;;;;;6185105;23;20033;-90
2023/03/08 05:25:46;;;;;;;43.60;20.98;;;2.10;99.90;;;;;;6168429;23;20408;-91
2023/03/08 05:28:38;;;;;;;29.77;13.00;;;2.10;99.90;;;;;;6183890;23;20048;-95
2023/03/08 05:31:25;;;;;;;26.45;13.82;;;2.10;99.90;;;;;;6184835;23;20029;-87
2023/03/08 05:34:33;;;;;;;26.55;14.48;;;2.10;99.90;;;;;;6184270;23;20033;-92
2023/03/08 05:37:24;;;;;;;29.58;14.93;;;2.20;99.90;;;;;;6190909;23;20355;-85
2023/03/08 05:40:13;;;;;;;28.75;14.60;;;2.10;99.90;;;;;;6189268;23;20345;-86
2023/03/08 05:43:06;;;;;;;28.52;14.48;;;2.20;99.90;;;;;;6165477;23;20332;-88
2023/03/08 05:45:57;;;;;;;;;;;2.20;99.90;;;;;;6235185;22;20016;-84
2023/03/08 05:48:47;;;;;;;28.05;15.70;;;2.20;99.90;;;;;;6276453;22;20004;-88
2023/03/08 05:51:35;;;;;;;27.02;14.15;;;2.30;99.90;;;;;;6255627;22;20038;-84
2023/03/08 05:54:22;;;;;;;27.48;15.10;;;2.30;99.90;;;;;;6283715;22;20031;-86
2023/03/08 05:57:10;;;;;;;27.95;15.50;;;2.30;99.90;;;;;;6287865;22;20030;-91
2023/03/08 06:00:12;;;;;;;28.23;16.77;;;2.40;99.90;;;;;;6281425;22;20107;-87
2023/03/08 06:03:10;;;;;;;33.58;16.98;;;2.40;99.90;;;;;;6260882;22;20024;-88
2023/03/08 06:05:57;;;;;;;34.17;16.77;;;2.50;99.90;;;;;;6262695;22;20414;-90
2023/03/08 06:08:47;;;;;;;32.15;17.00;;;2.50;99.90;;;;;;6252370;22;20430;-86
2023/03/08 06:11:34;;;;;;;31.83;17.23;;;2.50;99.90;;;;;;6225166;23;20315;-87
2023/03/08 06:14:22;;;;;;;30.15;17.10;;;2.60;99.90;;;;;;6222938;23;20028;-85
2023/03/08 06:17:09;;;;;;;30.52;17.08;;;2.60;99.90;;;;;;6245372;23;20023;-86
2023/03/08 06:19:56;;;;;;;31.20;16.77;;;2.60;99.90;;;;;;6245881;23;20020;-83
2023/03/08 06:22:46;;;;;;;35.00;17.65;;;2.60;99.90;;;;;;6246903;23;20051;-86
2023/03/08 06:25:33;;;;;;;36.67;18.33;;;2.60;99.90;;;;;;6244264;23;20030;-85
2023/03/08 06:28:27;;;;;;;35.28;17.98;;;2.60;99.90;;;;;;6245482;23;20388;-86
2023/03/08 06:31:17;;;;;;;34.42;17.00;;;2.70;99.90;;;;;;6249146;23;20028;-87
2023/03/08 06:34:06;;;;;;;30.20;18.00;;;2.70;99.90;;;;;;6247459;23;20039;-85
2023/03/08 06:36:58;;;;;;;35.33;18.40;;;2.70;99.90;;;;;;6221947;23;20043;-83
2023/03/08 06:39:45;;;;;;;31.50;17.60;;;2.80;99.90;;;;;;6242790;23;20035;-85
2023/03/08 06:42:34;;;;;;;34.63;18.73;;;2.80;99.90;;;;;;6244819;23;20024;-85
2023/03/08 06:45:27;;;;;;;36.35;18.95;;;2.80;99.90;;;;;;6204726;23;20028;-86
2023/03/08 06:48:17;;;;;;;35.53;18.33;;;2.80;99.90;;;;;;6244257;23;20315;-86
2023/03/08 06:51:07;;;;;;;37.78;19.50;;;2.80;99.90;;;;;;6244162;23;20032;-87
2023/03/08 06:53:56;;;;;;;34.08;18.25;;;2.80;99.90;;;;;;6246054;23;20316;-85
2023/03/08 06:56:46;;;;;;;40.42;18.67;;;2.90;99.90;;;;;;6246527;23;20672;-85
2023/03/08 06:59:34;;;;;;;38.00;19.80;;;2.90;99.90;;;;;;6245918;23;20507;-85
2023/03/08 07:02:21;;;;;;;36.28;18.83;;;3.00;99.90;;;;;;6246329;23;20028;-86
2023/03/08 07:05:09;;;;;;;30.05;17.52;;;3.00;99.90;;;;;;6250906;23;20050;-86
2023/03/08 07:07:58;;;;;;;35.28;17.85;;;3.00;99.90;;;;;;6263087;23;20031;-86
2023/03/08 07:10:47;;;;;;;37.45;19.58;;;3.00;99.90;;;;;;6244865;22;20027;-84
2023/03/08 07:13:36;;;;;;;33.47;18.40;;;3.10;99.90;;;;;;6245887;23;20036;-85
2023/03/08 07:16:26;;;;;;;31.35;17.77;;;3.10;99.90;;;;;;6200747;23;20043;-85
2023/03/08 07:19:13;;;;;;;31.85;17.73;;;3.10;99.90;;;;;;6252950;23;20096;-86
2023/03/08 07:22:00;;;;;;;32.13;16.80;;;3.10;99.90;;;;;;6249510;22;20091;-86
2023/03/08 07:24:48;;;;;;;32.03;17.42;;;3.10;99.90;;;;;;6241753;23;20070;-85
2023/03/08 07:27:35;;;;;;;31.23;16.10;;;3.20;99.90;;;;;;6246361;23;20024;-85
2023/03/08 07:30:23;;;;;;;28.85;16.35;;;3.20;99.90;;;;;;6243513;23;20028;-86
2023/03/08 07:33:10;;;;;;;29.67;15.02;;;3.20;99.90;;;;;;6245390;23;20035;-88
2023/03/08 07:36:01;;;;;;;27.00;15.80;;;3.10;99.90;;;;;;6247011;23;20107;-85
2023/03/08 07:38:48;;;;;;;27.08;14.80;;;3.10;99.90;;;;;;6248331;22;20099;-86
2023/03/08 07:41:38;;;;;;;26.98;15.15;;;3.10;99.90;;;;;;6225746;23;20074;-85
2023/03/08 07:44:28;;;;;;;24.80;14.05;;;3.10;99.90;;;;;;6252137;23;20049;-87
2023/03/08 07:47:15;;;;;;;28.40;15.13;;;3.10;99.90;;;;;;6257818;23;20464;-86
2023/03/08 07:50:03;;;;;;;27.95;15.23;;;3.10;99.90;;;;;;6258006;23;20028;-86
2023/03/08 07:52:50;;;;;;;24.90;14.20;;;3.10;99.90;;;;;;6258220;23;20459;-86
2023/03/08 07:55:39;;;;;;;27.55;15.57;;;3.10;99.90;;;;;;6260365;23;20505;-86
2023/03/08 07:58:28;;;;;;;29.30;15.52;;;3.20;99.90;;;;;;6257590;23;20035;-86
2023/03/08 08:01:15;;;;;;;29.02;15.57;;;3.20;99.90;;;;;;6240808;23;20016;-85
2023/03/08 08:04:07;;;;;;;26.85;14.90;;;3.20;99.90;;;;;;6269623;22;20016;-86
2023/03/08 08:06:55;;;;;;;25.88;14.55;;;3.20;99.90;;;;;;6270022;22;20027;-84
2023/03/08 08:09:42;;;;;;;27.83;15.60;;;3.20;99.90;;;;;;6268608;22;20012;-86
2023/03/08 08:12:31;;;;;;;31.40;16.08;;;3.30;99.90;;;;;;6270196;22;20008;-88
2023/03/08 08:15:19;;;;;;;31.02;15.98;;;3.30;99.90;;;;;;6264089;23;20024;-87
2023/03/08 08:18:07;;;;;;;30.77;15.35;;;3.40;99.90;;;;;;6260339;23;20024;-85
2023/03/08 08:21:02;;;;;;;31.15;16.00;;;3.50;99.90;;;;;;6262960;22;20024;-86
2023/03/08 08:23:49;;;;;;;27.30;15.38;;;3.60;99.90;;;;;;6262674;23;20020;-89
2023/03/08 08:26:38;;;;;;;26.90;15.70;;;3.70;99.90;;;;;;6244745;23;20020;-88
2023/03/08 08:29:26;;;;;;;25.38;15.70;;;3.70;99.90;;;;;;6267680;23;20151;-88
2023/03/08 08:32:15;;;;;;;28.48;16.40;;;3.60;99.90;;;;;;6260063;23;20103;-87
2023/03/08 08:35:05;;;;;;;28.73;17.20;;;3.70;99.90;;;;;;6247197;23;20047;-85
2023/03/08 08:37:52;;;;;;;32.38;16.58;;;3.70;99.90;;;;;;6227263;23;20090;-89
2023/03/08 08:40:39;;;;;;;28.60;15.82;;;3.90;99.90;;;;;;6231611;23;20024;-88
2023/03/08 08:43:28;;;;;;;30.40;16.52;;;4.00;99.90;;;;;;6250810;23;20384;-87
2023/03/08 08:46:16;;;;;;;25.42;15.07;;;4.20;99.90;;;;;;6251148;23;20338;-86
2023/03/08 08:49:09;;;;;;;27.00;15.15;;;4.30;99.90;;;;;;6246789;23;20119;-88
2023/03/08 08:51:56;;;;;;;;;;;4.40;99.90;;;;;;6246898;23;20299;-88
2023/03/08 08:54:44;;;;;;;23.63;13.90;;;4.50;99.90;;;;;;6262944;23;19980;-86
2023/03/08 08:57:31;;;;;;;25.08;15.40;;;4.60;99.90;;;;;;6247166;23;20099;-87
2023/03/08 09:00:19;;;;;;;25.15;14.50;;;4.60;99.90;;;;;;6248226;23;20024;-91
2023/03/08 09:03:06;;;;;;;29.88;16.23;;;4.50;99.90;;;;;;6251160;23;20020;-87
2023/03/08 09:05:57;;;;;;;28.58;15.55;;;4.50;99.90;;;;;;6249898;23;20028;-88
2023/03/08 09:08:51;;;;;;;25.30;14.98;;;4.50;99.90;;;;;;6237390;22;20048;-88
2023/03/08 09:11:43;;;;;;;27.88;15.02;;;4.60;99.90;;;;;;6248463;23;20386;-87
2023/03/08 09:14:41;;;;;;;27.93;15.63;;;4.50;99.90;;;;;;6247657;23;20031;-86
2023/03/08 09:17:35;;;;;;;22.95;13.63;;;4.50;99.90;;;;;;6236441;23;20062;-86
2023/03/08 09:20:22;;;;;;;28.95;14.50;;;4.60;99.90;;;;;;6261096;23;20024;-87
2023/03/08 09:23:12;;;;;;;22.02;13.32;;;4.80;99.90;;;;;;6261760;23;20020;-88
2023/03/08 09:25:59;;;;;;;22.92;14.10;;;4.90;99.90;;;;;;6263569;22;20055;-86
2023/03/08 09:28:48;;;;;;;22.95;13.30;;;5.00;99.90;;;;;;6260072;23;20055;-88
2023/03/08 09:31:39;;;;;;;21.48;13.10;;;5.10;99.90;;;;;;6262023;23;20038;-88
2023/03/08 09:34:26;;;;;;;20.48;13.27;;;5.10;99.90;;;;;;6271310;22;20012;-87
2023/03/08 09:37:17;;;;;;;23.77;14.45;;;5.20;99.90;;;;;;6272452;22;20086;-88
2023/03/08 09:40:08;;;;;;;23.48;12.20;;;5.20;99.90;;;;;;6268107;22;20020;-86
2023/03/08 09:43:02;;;;;;;23.63;12.90;;;5.40;99.90;;;;;;6272351;22;20059;-85
2023/03/08 09:45:53;;;;;;;20.55;13.25;;;5.50;99.90;;;;;;6266932;22;20020;-87
2023/03/08 09:48:46;;;;;;;21.40;12.52;;;5.60;99.90;;;;;;6261948;23;20083;-87
2023/03/08 09:51:36;;;;;;;26.15;12.45;;;5.60;99.90;;;;;;6263565;22;20020;-85
2023/03/08 09:54:28;;;;;;;21.67;12.90;;;5.70;99.90;;;;;;6261240;22;20020;-84
2023/03/08 09:57:36;;;;;;;18.17;11.90;;;5.90;99.90;;;;;;6262092;23;20042;-86
2023/03/08 10:00:36;;;;;;;18.93;10.60;;;6.00;99.90;;;;;;6262738;22;20024;-85
2023/03/08 10:03:39;;;;;;;20.70;11.57;;;5.90;99.90;;;;;;6260909;22;20050;-84
2023/03/08 10:06:42;;;;;;;18.75;10.80;;;5.90;99.90;;;;;;6250802;23;20050;-86
2023/03/08 10:09:34;;;;;;;;;;;6.00;99.90;;;;;;6250742;22;20024;-85
2023/03/08 10:16:31;;;;;;;19.23;10.90;;;6.10;99.90;;;;;;6246138;23;20005;-86
2023/03/08 10:19:56;;;;;;;20.48;11.05;;;6.30;99.90;;;;;;6248491;23;20095;-87
2023/03/08 10:22:57;;;;;;;20.02;9.63;;;6.30;99.90;;;;;;6194601;23;20101;-85
2023/03/08 10:25:47;;;;;;;14.00;9.05;;;6.50;99.90;;;;;;6256822;23;20079;-84
2023/03/08 10:28:35;;;;;;;17.80;8.95;;;6.40;99.90;;;;;;6246018;23;20032;-86
2023/03/08 10:31:27;;;;;;;16.83;10.23;;;6.50;1.00;;;;;;6244934;23;20028;-85
2023/03/08 10:34:19;;;;;;;18.17;12.65;;;6.60;1.00;;;;;;6246155;23;20032;-89
2023/03/08 10:37:13;;;;;;;18.52;11.07;;;6.70;1.00;;;;;;6225772;23;20287;-85
2023/03/08 10:40:18;;;;;;;14.50;8.48;;;7.00;1.00;;;;;;6223848;23;20024;-86
2023/03/08 10:43:06;;;;;;;10.25;7.18;;;7.40;1.00;;;;;;6247120;23;20035;-87
2023/03/08 10:46:12;;;;;;;12.40;6.53;;;7.60;1.00;;;;;;6244038;23;20024;-85
2023/03/08 10:49:13;;;;;;;12.50;6.32;;;7.80;1.00;;;;;;6245743;23;20085;-87
2023/03/08 10:52:01;;;;;;;8.98;5.35;;;7.80;1.00;;;;;;6243874;23;20035;-85
2023/03/08 10:55:13;;;;;;;7.88;4.30;;;7.90;1.00;;;;;;6223749;23;20032;-87
2023/03/08 10:58:05;;;;;;;8.38;3.55;;;7.90;1.00;;;;;;6233779;23;20024;-87
2023/03/08 11:00:56;;;;;;;4.88;3.20;;;7.90;1.00;;;;;;6252808;23;20090;-88
2023/03/08 11:03:44;;;;;;;3.10;2.53;;;8.00;1.00;;;;;;6250684;23;20142;-87
2023/03/08 11:06:34;;;;;;;4.93;2.42;;;8.20;1.00;;;;;;6250502;23;20411;-86
2023/03/08 11:09:30;;;;;;;6.82;1.92;;;8.40;1.00;;;;;;6249828;22;20349;-86
2023/03/08 11:12:23;;;;;;;3.35;1.77;;;8.60;1.00;;;;;;6256112;23;20039;-86
2023/03/08 11:15:19;;;;;;;3.10;1.63;;;8.90;1.00;;;;;;6233372;23;20105;-85
2023/03/08 11:18:29;;;;;;;2.00;1.45;;;9.00;1.00;;;;;;6236511;23;20028;-87
2023/03/08 11:21:42;;;;;;;3.88;1.30;;;9.10;1.00;;;;;;6227250;23;20392;-86
2023/03/08 11:25:14;;;;;;;3.55;1.35;;;9.20;1.00;;;;;;6225373;23;20114;-90
2023/03/08 11:28:30;;;;;;;6.35;1.52;;;9.20;1.00;;;;;;6224154;23;20032;-85
2023/03/08 11:31:38;;;;;;;2.83;1.20;;;9.40;1.00;;;;;;6223719;23;20024;-86
2023/03/08 11:34:52;;;;;;;5.68;1.40;;;9.60;99.90;;;;;;6224781;23;20024;-85
2023/03/08 11:37:48;;;;;;;2.80;1.90;;;9.60;99.90;;;;;;6223834;23;20039;-86
2023/03/08 11:40:55;;;;;;;1.27;1.17;;;9.60;99.90;;;;;;6222388;23;20032;-86
2023/03/08 11:44:04;;;;;;;5.03;1.40;;;9.60;99.90;;;;;;6244102;23;20088;-86
2023/03/08 11:47:10;;;;;;;2.20;1.40;;;9.70;99.90;;;;;;6245444;23;20154;-84
2023/03/08 11:50:21;;;;;;;1.75;1.10;;;9.60;99.90;;;;;;6244741;23;20089;-85
2023/03/08 11:53:14;;;;;;;3.50;1.35;;;9.60;99.90;;;;;;6245588;23;20039;-83
2023/03/08 11:56:33;;;;;;;1.70;1.10;;;9.60;99.90;;;;;;6244050;23;20024;-86
2023/03/08 11:59:42;;;;;;;1.38;1.20;;;9.70;99.90;;;;;;6251331;23;20004;-84
2023/03/08 12:02:36;;;;;;;2.35;1.30;;;9.70;99.90;;;;;;6226536;23;20020;-87
2023/03/08 12:05:33;;;;;;;2.88;1.42;;;9.80;99.90;;;;;;6223779;23;20332;-87
2023/03/08 12:08:36;;;;;;;4.28;1.30;;;9.90;99.90;;;;;;6224215;23;20087;-85
2023/03/08 12:11:30;;;;;;;1.73;1.27;;;9.80;99.90;;;;;;6245459;23;20027;-85
2023/03/08 12:14:29;;;;;;;1.20;1.10;;;9.90;99.90;;;;;;6247339;23;20024;-85
2023/03/08 12:17:24;;;;;;;1.05;0.95;;;10.00;99.90;;;;;;6246930;23;20030;-88
2023/03/08 12:20:18;;;;;;;1.30;1.20;;;9.90;99.90;;;;;;6228677;23;20028;-87
2023/03/08 12:23:27;;;;;;;1.38;0.80;;;10.00;99.90;;;;;;6249250;23;20034;-88
2023/03/08 12:26:28;;;;;;;1.20;1.10;;;10.00;99.90;;;;;;6248408;23;20023;-85
2023/03/08 12:29:44;;;;;;;2.17;1.05;;;10.00;99.90;;;;;;6249872;23;20032;-85
2023/03/08 12:32:40;;;;;;;1.50;1.40;;;10.20;99.90;;;;;;6227894;23;20028;-86
2023/03/08 12:35:36;;;;;;;2.47;1.20;;;10.30;99.90;;;;;;6248945;23;20028;-88
2023/03/08 12:38:31;;;;;;;4.75;1.15;;;10.30;99.90;;;;;;6246765;23;20028;-85
2023/03/08 12:41:32;;;;;;;2.40;1.00;;;10.30;99.90;;;;;;6231536;23;20084;-87
2023/03/08 12:44:26;;;;;;;1.75;0.80;;;10.30;99.90;;;;;;6250038;23;20032;-88
2023/03/08 12:47:18;;;;;;;2.08;1.00;;;10.40;99.90;;;;;;6233364;23;20068;-85
2023/03/08 12:50:16;;;;;;;1.33;1.00;;;10.30;99.90;;;;;;6227426;23;20046;-83
2023/03/08 12:53:50;;;;;;;1.88;1.25;;;10.30;99.90;;;;;;6247790;23;20363;-87
2023/03/08 12:56:52;;;;;;;2.35;1.00;;;10.40;99.90;;;;;;6081025;23;20038;-85
2023/03/08 12:59:44;;;;;;;1.53;1.17;;;10.40;99.90;;;;;;6227158;23;20020;-85
2023/03/08 13:19:15;;;;;;;2.17;0.98;;;10.50;1.00;;;;;;6124681;23;20024;-82
2023/03/08 13:22:21;;;;;;;1.58;1.00;;;10.40;1.00;;;;;;6124841;23;20117;-84
2023/03/08 13:25:34;;;;;;;1.88;1.17;;;10.20;1.00;;;;;;6204249;23;20396;-83
2023/03/08 13:28:24;;;;;;;1.73;1.13;;;10.30;1.00;;;;;;6245596;23;20028;-86
2023/03/08 13:31:29;;;;;;;1.13;1.00;;;10.40;1.00;;;;;;6231400;23;20043;-87
2023/03/08 13:34:30;;;;;;;1.50;1.27;;;10.30;1.00;;;;;;6215588;23;20087;-87
2023/03/08 13:37:26;;;;;;;1.35;1.13;;;10.30;1.00;;;;;;6251338;23;20028;-87
2023/03/08 13:40:17;;;;;;;1.17;1.08;;;10.40;1.00;;;;;;6247230;23;20328;-90
2023/03/08 13:43:09;;;;;;;1.50;1.00;;;10.60;1.00;;;;;;6252923;23;20019;-89
2023/03/08 13:46:09;;;;;;;1.88;1.15;;;10.80;1.00;;;;;;6230191;23;20031;-87
2023/03/08 13:48:57;;;;;;;1.70;1.00;;;11.00;99.90;;;;;;6247464;23;20032;-85
2023/03/08 13:51:48;;;;;;;1.45;1.00;;;11.90;99.90;;;;;;6247563;23;20106;-88
2023/03/08 13:54:41;;;;;;;2.55;0.80;;;12.50;99.90;;;;;;6247144;23;20028;-86
2023/03/08 13:57:35;;;;;;;;;;;12.70;99.90;;;;;;6226897;23;20105;-83
2023/03/08 14:00:37;;;;;;;3.70;0.80;;;13.20;99.90;;;;;;6248622;23;19923;-85
2023/03/08 14:03:28;;;;;;;2.55;0.80;;;13.10;99.90;;;;;;6246584;23;20435;-85
2023/03/08 14:14:34;;;;;;;0.82;0.70;;;12.60;99.90;;;;;;6249198;23;20032;-89
2023/03/08 14:17:26;;;;;;;6.32;0.80;;;12.00;99.90;;;;;;6251050;23;20020;-87
2023/03/08 14:20:20;;;;;;;0.95;0.70;;;11.70;99.90;;;;;;6226776;22;20025;-90
2023/03/08 14:23:22;;;;;;;3.60;0.80;;;12.10;99.90;;;;;;6256635;22;20054;-89
2023/03/08 14:26:33;;;;;;;0.65;0.65;;;12.80;99.90;;;;;;6248587;23;20158;-88
2023/03/08 14:29:22;;;;;;;0.63;0.63;;;12.90;99.90;;;;;;6247929;23;20024;-90
2023/03/08 14:32:09;;;;;;;1.45;0.90;;;13.40;99.90;;;;;;6225697;23;20023;-90
2023/03/08 14:35:18;;;;;;;0.73;0.57;;;13.10;99.90;;;;;;6246933;23;20034;-91
2023/03/08 14:38:26;;;;;;;5.53;0.68;;;13.40;99.90;;;;;;6247020;23;20038;-89
2023/03/08 14:41:15;;;;;;;2.05;0.60;;;13.00;99.90;;;;;;6245749;23;20420;-86
2023/03/08 14:44:03;;;;;;;1.70;0.77;;;12.00;99.90;;;;;;6245616;23;20028;-84
2023/03/08 14:46:57;;;;;;;1.17;0.80;;;11.80;99.90;;;;;;6247290;23;20342;-86
2023/03/08 14:49:59;;;;;;;2.03;0.80;;;11.60;99.90;;;;;;6223152;23;20038;-86
2023/03/08 14:52:50;;;;;;;0.80;0.80;;;11.60;99.90;;;;;;6248347;23;20028;-86
2023/03/08 14:55:38;;;;;;;1.88;0.70;;;11.60;99.90;;;;;;6226897;23;20327;-89
2023/03/08 14:58:29;;;;;;;4.20;0.80;;;11.40;99.90;;;;;;6228897;23;20027;-88
2023/03/08 15:01:27;;;;;;;1.55;0.90;;;11.10;99.90;;;;;;6226711;23;20121;-88
2023/03/08 15:04:18;;;;;;;2.30;1.05;;;11.00;1.00;;;;;;6224786;23;20035;-85
2023/03/08 15:07:06;;;;;;;1.70;0.90;;;11.00;1.00;;;;;;6225306;23;20046;-87
2023/03/08 15:09:53;;;;;;;1.50;0.90;;;11.40;1.00;;;;;;6232629;23;20028;-86
2023/03/08 15:12:43;;;;;;;2.08;1.20;;;11.50;1.00;;;;;;6246605;23;20028;-85
2023/03/08 15:15:33;;;;;;;1.70;0.98;;;11.70;1.00;;;;;;6249172;23;20028;-85
2023/03/08 15:18:26;;;;;;;4.30;0.95;;;11.80;1.00;;;;;;6226500;23;20028;-87
2023/03/08 15:21:22;;;;;;;1.40;0.90;;;12.10;99.90;;;;;;6227719;22;20051;-87
2023/03/08 15:24:16;;;;;;;0.75;0.75;;;11.80;99.90;;;;;;6223729;23;20321;-88
2023/03/08 15:27:05;;;;;;;1.85;0.90;;;11.40;99.90;;;;;;6245008;23;20099;-86